sensor_id;sensor_type;location;lat;lon;timestamp;pressure;altitude;pressure_sealevel;temperature
41593;BMP180;28026;48.562;14.440;2023-02-11T00:01:25;95314.00;;;4.40
41593;BMP180;28026;48.562;14.440;2023-02-11T00:03:59;95311.00;;;4.40
41593;BMP180;28026;48.562;14.440;2023-02-11T00:06:33;95307.00;;;4.40
41593;BMP180;28026;48.562;14.440;2023-02-11T00:09:05;95301.00;;;4.40
41593;BMP180;28026;48.562;14.440;2023-02-11T00:11:36;95306.00;;;4.40
41593;BMP180;28026;48.562;14.440;2023-02-11T00:14:10;95308.00;;;4.40
41593;BMP180;28026;48.562;14.440;2023-02-11T00:16:41;95301.00;;;4.40
41593;BMP180;28026;48.562;14.440;2023-02-11T00:19:12;95302.00;;;4.40
41593;BMP180;28026;48.562;14.440;2023-02-11T00:21:43;95296.00;;;4.30
41593;BMP180;28026;48.562;14.440;2023-02-11T00:24:14;95299.00;;;4.30
41593;BMP180;28026;48.562;14.440;2023-02-11T00:26:44;95293.00;;;4.30
41593;BMP180;28026;48.562;14.440;2023-02-11T00:29:15;95302.00;;;4.30
41593;BMP180;28026;48.562;14.440;2023-02-11T00:31:47;95291.00;;;4.30
41593;BMP180;28026;48.562;14.440;2023-02-11T00:34:17;95298.00;;;4.30
41593;BMP180;28026;48.562;14.440;2023-02-11T00:36:48;95303.00;;;4.30
41593;BMP180;28026;48.562;14.440;2023-02-11T00:39:19;95284.00;;;4.30
41593;BMP180;28026;48.562;14.440;2023-02-11T00:41:51;95293.00;;;4.30
41593;BMP180;28026;48.562;14.440;2023-02-11T00:44:22;95303.00;;;4.30
41593;BMP180;28026;48.562;14.440;2023-02-11T00:46:53;95293.00;;;4.30
41593;BMP180;28026;48.562;14.440;2023-02-11T00:49:23;95298.00;;;4.20
41593;BMP180;28026;48.562;14.440;2023-02-11T00:51:54;95293.00;;;4.30
41593;BMP180;28026;48.562;14.440;2023-02-11T00:54:25;95289.00;;;4.30
41593;BMP180;28026;48.562;14.440;2023-02-11T00:56:56;95288.00;;;4.30
41593;BMP180;28026;48.562;14.440;2023-02-11T00:59:27;95296.00;;;4.30
41593;BMP180;28026;48.562;14.440;2023-02-11T01:01:58;95293.00;;;4.30
41593;BMP180;28026;48.562;14.440;2023-02-11T01:04:29;95285.00;;;4.30
41593;BMP180;28026;48.562;14.440;2023-02-11T01:07:00;95288.00;;;4.30
41593;BMP180;28026;48.562;14.440;2023-02-11T01:09:31;95274.00;;;4.30
41593;BMP180;28026;48.562;14.440;2023-02-11T01:12:02;95282.00;;;4.30
41593;BMP180;28026;48.562;14.440;2023-02-11T01:14:33;95277.00;;;4.30
41593;BMP180;28026;48.562;14.440;2023-02-11T01:17:05;95269.00;;;4.30
41593;BMP180;28026;48.562;14.440;2023-02-11T01:19:37;95272.00;;;4.30
41593;BMP180;28026;48.562;14.440;2023-02-11T01:22:08;95276.00;;;4.30
41593;BMP180;28026;48.562;14.440;2023-02-11T01:24:39;95252.00;;;4.30
41593;BMP180;28026;48.562;14.440;2023-02-11T01:27:10;95269.00;;;4.30
41593;BMP180;28026;48.562;14.440;2023-02-11T01:29:41;95267.00;;;4.30
41593;BMP180;28026;48.562;14.440;2023-02-11T01:32:12;95260.00;;;4.30
41593;BMP180;28026;48.562;14.440;2023-02-11T01:34:42;95261.00;;;4.30
41593;BMP180;28026;48.562;14.440;2023-02-11T01:37:13;95249.00;;;4.30
41593;BMP180;28026;48.562;14.440;2023-02-11T01:39:44;95255.00;;;4.20
41593;BMP180;28026;48.562;14.440;2023-02-11T01:42:18;95246.00;;;4.20
41593;BMP180;28026;48.562;14.440;2023-02-11T01:44:53;95235.00;;;4.20
41593;BMP180;28026;48.562;14.440;2023-02-11T01:47:24;95235.00;;;4.20
41593;BMP180;28026;48.562;14.440;2023-02-11T01:49:59;95246.00;;;4.20
41593;BMP180;28026;48.562;14.440;2023-02-11T01:52:36;95245.00;;;4.20
41593;BMP180;28026;48.562;14.440;2023-02-11T01:55:12;95245.00;;;4.20
41593;BMP180;28026;48.562;14.440;2023-02-11T01:58:04;95242.00;;;4.20
41593;BMP180;28026;48.562;14.440;2023-02-11T02:00:38;95234.00;;;4.20
41593;BMP180;28026;48.562;14.440;2023-02-11T02:03:19;95238.00;;;4.20
41593;BMP180;28026;48.562;14.440;2023-02-11T02:06:01;95241.00;;;4.20
41593;BMP180;28026;48.562;14.440;2023-02-11T02:08:50;95218.00;;;4.20
41593;BMP180;28026;48.562;14.440;2023-02-11T02:11:26;95229.00;;;4.20
41593;BMP180;28026;48.562;14.440;2023-02-11T02:13:58;95225.00;;;4.20
41593;BMP180;28026;48.562;14.440;2023-02-11T02:16:34;95212.00;;;4.20
41593;BMP180;28026;48.562;14.440;2023-02-11T02:22:53;95206.00;;;4.20
41593;BMP180;28026;48.562;14.440;2023-02-11T02:35:49;95182.00;;;4.10
41593;BMP180;28026;48.562;14.440;2023-02-11T02:39:09;95183.00;;;4.10
41593;BMP180;28026;48.562;14.440;2023-02-11T02:41:40;95170.00;;;4.10
41593;BMP180;28026;48.562;14.440;2023-02-11T02:44:13;95167.00;;;4.10
41593;BMP180;28026;48.562;14.440;2023-02-11T02:46:44;95167.00;;;4.10
41593;BMP180;28026;48.562;14.440;2023-02-11T02:49:16;95172.00;;;4.10
41593;BMP180;28026;48.562;14.440;2023-02-11T02:55:18;95174.00;;;4.10
41593;BMP180;28026;48.562;14.440;2023-02-11T03:01:16;95155.00;;;4.10
41593;BMP180;28026;48.562;14.440;2023-02-11T03:04:20;95148.00;;;4.10
41593;BMP180;28026;48.562;14.440;2023-02-11T03:07:16;95144.00;;;4.10
41593;BMP180;28026;48.562;14.440;2023-02-11T03:10:24;95159.00;;;4.10
41593;BMP180;28026;48.562;14.440;2023-02-11T03:13:02;95146.00;;;4.20
41593;BMP180;28026;48.562;14.440;2023-02-11T03:15:43;95150.00;;;4.20
41593;BMP180;28026;48.562;14.440;2023-02-11T03:18:21;95154.00;;;4.20
41593;BMP180;28026;48.562;14.440;2023-02-11T03:20:56;95151.00;;;4.20
41593;BMP180;28026;48.562;14.440;2023-02-11T03:24:03;95151.00;;;4.20
41593;BMP180;28026;48.562;14.440;2023-02-11T03:26:43;95144.00;;;4.20
41593;BMP180;28026;48.562;14.440;2023-02-11T03:29:40;95149.00;;;4.30
41593;BMP180;28026;48.562;14.440;2023-02-11T03:32:34;95149.00;;;4.20
41593;BMP180;28026;48.562;14.440;2023-02-11T03:35:23;95145.00;;;4.20
41593;BMP180;28026;48.562;14.440;2023-02-11T03:38:06;95156.00;;;4.10
41593;BMP180;28026;48.562;14.440;2023-02-11T03:40:45;95148.00;;;4.20
41593;BMP180;28026;48.562;14.440;2023-02-11T03:43:24;95147.00;;;4.20
41593;BMP180;28026;48.562;14.440;2023-02-11T03:46:02;95147.00;;;4.10
41593;BMP180;28026;48.562;14.440;2023-02-11T03:48:57;95133.00;;;4.20
41593;BMP180;28026;48.562;14.440;2023-02-11T03:51:35;95141.00;;;4.20
41593;BMP180;28026;48.562;14.440;2023-02-11T03:54:15;95129.00;;;4.30
41593;BMP180;28026;48.562;14.440;2023-02-11T03:56:57;95164.00;;;4.30
41593;BMP180;28026;48.562;14.440;2023-02-11T03:59:30;95172.00;;;4.40
41593;BMP180;28026;48.562;14.440;2023-02-11T04:02:00;95164.00;;;4.40
41593;BMP180;28026;48.562;14.440;2023-02-11T04:04:31;95152.00;;;4.50
41593;BMP180;28026;48.562;14.440;2023-02-11T04:07:02;95162.00;;;4.50
41593;BMP180;28026;48.562;14.440;2023-02-11T04:09:33;95150.00;;;4.50
41593;BMP180;28026;48.562;14.440;2023-02-11T04:12:06;95151.00;;;4.60
41593;BMP180;28026;48.562;14.440;2023-02-11T04:14:38;95150.00;;;4.50
41593;BMP180;28026;48.562;14.440;2023-02-11T04:17:09;95155.00;;;4.50
41593;BMP180;28026;48.562;14.440;2023-02-11T04:19:41;95154.00;;;4.50
41593;BMP180;28026;48.562;14.440;2023-02-11T04:22:12;95157.00;;;4.50
41593;BMP180;28026;48.562;14.440;2023-02-11T04:24:43;95151.00;;;4.50
41593;BMP180;28026;48.562;14.440;2023-02-11T04:27:14;95147.00;;;4.50
41593;BMP180;28026;48.562;14.440;2023-02-11T04:29:45;95145.00;;;4.50
41593;BMP180;28026;48.562;14.440;2023-02-11T04:32:15;95139.00;;;4.50
41593;BMP180;28026;48.562;14.440;2023-02-11T04:34:46;95158.00;;;4.50
41593;BMP180;28026;48.562;14.440;2023-02-11T04:37:17;95168.00;;;4.50
41593;BMP180;28026;48.562;14.440;2023-02-11T04:39:48;95171.00;;;4.60
41593;BMP180;28026;48.562;14.440;2023-02-11T04:42:19;95162.00;;;4.60
41593;BMP180;28026;48.562;14.440;2023-02-11T04:44:50;95156.00;;;4.70
41593;BMP180;28026;48.562;14.440;2023-02-11T04:47:21;95165.00;;;4.70
41593;BMP180;28026;48.562;14.440;2023-02-11T04:49:52;95162.00;;;4.70
41593;BMP180;28026;48.562;14.440;2023-02-11T04:52:23;95152.00;;;4.70
41593;BMP180;28026;48.562;14.440;2023-02-11T04:54:54;95151.00;;;4.70
41593;BMP180;28026;48.562;14.440;2023-02-11T04:57:24;95146.00;;;4.70
41593;BMP180;28026;48.562;14.440;2023-02-11T04:59:55;95124.00;;;4.70
41593;BMP180;28026;48.562;14.440;2023-02-11T05:02:26;95120.00;;;4.60
41593;BMP180;28026;48.562;14.440;2023-02-11T05:04:57;95129.00;;;4.50
41593;BMP180;28026;48.562;14.440;2023-02-11T05:07:28;95141.00;;;4.50
41593;BMP180;28026;48.562;14.440;2023-02-11T05:09:59;95137.00;;;4.60
41593;BMP180;28026;48.562;14.440;2023-02-11T05:12:30;95126.00;;;4.60
41593;BMP180;28026;48.562;14.440;2023-02-11T05:15:00;95126.00;;;4.60
41593;BMP180;28026;48.562;14.440;2023-02-11T05:17:31;95123.00;;;4.60
41593;BMP180;28026;48.562;14.440;2023-02-11T05:20:03;95138.00;;;4.50
41593;BMP180;28026;48.562;14.440;2023-02-11T05:22:34;95135.00;;;4.60
41593;BMP180;28026;48.562;14.440;2023-02-11T05:25:05;95143.00;;;4.50
41593;BMP180;28026;48.562;14.440;2023-02-11T05:27:36;95145.00;;;4.50
41593;BMP180;28026;48.562;14.440;2023-02-11T05:30:09;95128.00;;;4.50
41593;BMP180;28026;48.562;14.440;2023-02-11T05:32:40;95121.00;;;4.50
41593;BMP180;28026;48.562;14.440;2023-02-11T05:35:12;95117.00;;;4.50
41593;BMP180;28026;48.562;14.440;2023-02-11T05:37:43;95115.00;;;4.40
41593;BMP180;28026;48.562;14.440;2023-02-11T05:40:15;95115.00;;;4.40
41593;BMP180;28026;48.562;14.440;2023-02-11T05:42:46;95126.00;;;4.40
41593;BMP180;28026;48.562;14.440;2023-02-11T05:45:17;95128.00;;;4.50
41593;BMP180;28026;48.562;14.440;2023-02-11T05:47:48;95130.00;;;4.50
41593;BMP180;28026;48.562;14.440;2023-02-11T05:50:19;95122.00;;;4.60
41593;BMP180;28026;48.562;14.440;2023-02-11T05:52:50;95115.00;;;4.60
41593;BMP180;28026;48.562;14.440;2023-02-11T05:55:21;95103.00;;;4.60
41593;BMP180;28026;48.562;14.440;2023-02-11T05:57:52;95104.00;;;4.60
41593;BMP180;28026;48.562;14.440;2023-02-11T06:00:23;95111.00;;;4.60
41593;BMP180;28026;48.562;14.440;2023-02-11T06:17:25;95083.00;;;5.10
41593;BMP180;28026;48.562;14.440;2023-02-11T06:19:59;95093.00;;;5.10
41593;BMP180;28026;48.562;14.440;2023-02-11T06:22:32;95095.00;;;5.10
41593;BMP180;28026;48.562;14.440;2023-02-11T06:25:03;95089.00;;;5.10
41593;BMP180;28026;48.562;14.440;2023-02-11T06:27:34;95087.00;;;5.10
41593;BMP180;28026;48.562;14.440;2023-02-11T06:30:07;95086.00;;;5.10
41593;BMP180;28026;48.562;14.440;2023-02-11T06:32:38;95090.00;;;5.10
41593;BMP180;28026;48.562;14.440;2023-02-11T06:35:09;95097.00;;;5.10
41593;BMP180;28026;48.562;14.440;2023-02-11T06:37:41;95104.00;;;5.10
41593;BMP180;28026;48.562;14.440;2023-02-11T06:40:12;95114.00;;;5.10
41593;BMP180;28026;48.562;14.440;2023-02-11T06:42:43;95113.00;;;5.20
41593;BMP180;28026;48.562;14.440;2023-02-11T06:45:14;95124.00;;;5.20
41593;BMP180;28026;48.562;14.440;2023-02-11T06:47:45;95124.00;;;5.20
41593;BMP180;28026;48.562;14.440;2023-02-11T06:50:16;95127.00;;;5.20
41593;BMP180;28026;48.562;14.440;2023-02-11T06:52:47;95124.00;;;5.20
41593;BMP180;28026;48.562;14.440;2023-02-11T06:55:18;95129.00;;;5.30
41593;BMP180;28026;48.562;14.440;2023-02-11T06:57:49;95131.00;;;5.30
41593;BMP180;28026;48.562;14.440;2023-02-11T07:00:20;95132.00;;;5.40
41593;BMP180;28026;48.562;14.440;2023-02-11T07:02:51;95133.00;;;5.40
41593;BMP180;28026;48.562;14.440;2023-02-11T07:05:22;95132.00;;;5.40
41593;BMP180;28026;48.562;14.440;2023-02-11T07:07:53;95131.00;;;5.40
41593;BMP180;28026;48.562;14.440;2023-02-11T07:10:23;95128.00;;;5.50
41593;BMP180;28026;48.562;14.440;2023-02-11T07:12:54;95128.00;;;5.50
41593;BMP180;28026;48.562;14.440;2023-02-11T07:15:25;95134.00;;;5.50
41593;BMP180;28026;48.562;14.440;2023-02-11T07:17:56;95136.00;;;5.50
41593;BMP180;28026;48.562;14.440;2023-02-11T07:20:27;95125.00;;;5.50
41593;BMP180;28026;48.562;14.440;2023-02-11T07:22:58;95118.00;;;5.50
41593;BMP180;28026;48.562;14.440;2023-02-11T07:25:29;95114.00;;;5.60
41593;BMP180;28026;48.562;14.440;2023-02-11T07:28:00;95110.00;;;5.60
41593;BMP180;28026;48.562;14.440;2023-02-11T07:30:33;95121.00;;;5.60
41593;BMP180;28026;48.562;14.440;2023-02-11T07:33:04;95119.00;;;5.70
41593;BMP180;28026;48.562;14.440;2023-02-11T07:35:35;95127.00;;;5.90
41593;BMP180;28026;48.562;14.440;2023-02-11T07:38:06;95129.00;;;6.10
41593;BMP180;28026;48.562;14.440;2023-02-11T07:40:36;95121.00;;;6.20
41593;BMP180;28026;48.562;14.440;2023-02-11T07:43:07;95124.00;;;6.30
41593;BMP180;28026;48.562;14.440;2023-02-11T07:45:38;95117.00;;;6.40
41593;BMP180;28026;48.562;14.440;2023-02-11T07:48:09;95108.00;;;6.50
41593;BMP180;28026;48.562;14.440;2023-02-11T07:50:40;95106.00;;;6.50
41593;BMP180;28026;48.562;14.440;2023-02-11T07:53:11;95099.00;;;6.50
41593;BMP180;28026;48.562;14.440;2023-02-11T07:55:43;95099.00;;;6.40
41593;BMP180;28026;48.562;14.440;2023-02-11T07:58:14;95089.00;;;6.50
41593;BMP180;28026;48.562;14.440;2023-02-11T08:00:44;95085.00;;;6.50
41593;BMP180;28026;48.562;14.440;2023-02-11T08:03:15;95086.00;;;6.50
41593;BMP180;28026;48.562;14.440;2023-02-11T08:05:46;95099.00;;;6.50
41593;BMP180;28026;48.562;14.440;2023-02-11T08:08:17;95093.00;;;6.60
41593;BMP180;28026;48.562;14.440;2023-02-11T08:10:48;95084.00;;;6.70
41593;BMP180;28026;48.562;14.440;2023-02-11T08:13:19;95085.00;;;6.70
41593;BMP180;28026;48.562;14.440;2023-02-11T08:15:50;95071.00;;;6.70
41593;BMP180;28026;48.562;14.440;2023-02-11T08:18:21;95078.00;;;6.70
41593;BMP180;28026;48.562;14.440;2023-02-11T08:20:52;95076.00;;;6.80
41593;BMP180;28026;48.562;14.440;2023-02-11T08:23:22;95088.00;;;6.80
41593;BMP180;28026;48.562;14.440;2023-02-11T08:25:53;95088.00;;;6.80
41593;BMP180;28026;48.562;14.440;2023-02-11T08:28:24;95097.00;;;6.90
41593;BMP180;28026;48.562;14.440;2023-02-11T08:30:55;95087.00;;;6.90
41593;BMP180;28026;48.562;14.440;2023-02-11T08:33:26;95095.00;;;6.90
41593;BMP180;28026;48.562;14.440;2023-02-11T08:35:57;95104.00;;;6.90
41593;BMP180;28026;48.562;14.440;2023-02-11T08:38:28;95100.00;;;6.90
41593;BMP180;28026;48.562;14.440;2023-02-11T08:41:00;95102.00;;;7.00
41593;BMP180;28026;48.562;14.440;2023-02-11T08:43:31;95125.00;;;7.20
41593;BMP180;28026;48.562;14.440;2023-02-11T08:46:03;95118.00;;;7.30
41593;BMP180;28026;48.562;14.440;2023-02-11T08:48:35;95107.00;;;7.40
41593;BMP180;28026;48.562;14.440;2023-02-11T08:51:27;95109.00;;;7.50
41593;BMP180;28026;48.562;14.440;2023-02-11T08:54:02;95103.00;;;7.50
41593;BMP180;28026;48.562;14.440;2023-02-11T08:56:34;95107.00;;;7.60
41593;BMP180;28026;48.562;14.440;2023-02-11T08:59:06;95112.00;;;7.60
41593;BMP180;28026;48.562;14.440;2023-02-11T09:01:38;95135.00;;;7.70
41593;BMP180;28026;48.562;14.440;2023-02-11T09:04:09;95120.00;;;7.80
41593;BMP180;28026;48.562;14.440;2023-02-11T09:06:40;95119.00;;;8.00
41593;BMP180;28026;48.562;14.440;2023-02-11T09:09:13;95122.00;;;8.00
41593;BMP180;28026;48.562;14.440;2023-02-11T09:11:45;95109.00;;;8.00
41593;BMP180;28026;48.562;14.440;2023-02-11T09:14:20;95121.00;;;8.00
41593;BMP180;28026;48.562;14.440;2023-02-11T09:16:52;95130.00;;;8.00
41593;BMP180;28026;48.562;14.440;2023-02-11T09:19:23;95118.00;;;8.10
41593;BMP180;28026;48.562;14.440;2023-02-11T09:21:54;95119.00;;;8.10
41593;BMP180;28026;48.562;14.440;2023-02-11T09:24:26;95124.00;;;8.20
41593;BMP180;28026;48.562;14.440;2023-02-11T09:26:57;95119.00;;;8.20
41593;BMP180;28026;48.562;14.440;2023-02-11T09:29:28;95128.00;;;8.10
41593;BMP180;28026;48.562;14.440;2023-02-11T09:31:59;95111.00;;;8.00
41593;BMP180;28026;48.562;14.440;2023-02-11T09:34:30;95109.00;;;8.00
41593;BMP180;28026;48.562;14.440;2023-02-11T09:37:00;95103.00;;;8.00
41593;BMP180;28026;48.562;14.440;2023-02-11T09:39:31;95099.00;;;7.90
41593;BMP180;28026;48.562;14.440;2023-02-11T09:42:38;95116.00;;;7.80
41593;BMP180;28026;48.562;14.440;2023-02-11T09:45:23;95114.00;;;7.80
41593;BMP180;28026;48.562;14.440;2023-02-11T09:48:05;95128.00;;;7.90
41593;BMP180;28026;48.562;14.440;2023-02-11T09:50:59;95127.00;;;8.00
41593;BMP180;28026;48.562;14.440;2023-02-11T09:53:41;95129.00;;;8.00
41593;BMP180;28026;48.562;14.440;2023-02-11T09:56:14;95128.00;;;8.00
41593;BMP180;28026;48.562;14.440;2023-02-11T09:58:45;95130.00;;;8.00
41593;BMP180;28026;48.562;14.440;2023-02-11T10:01:36;95128.00;;;8.00
41593;BMP180;28026;48.562;14.440;2023-02-11T10:07:38;95120.00;;;8.20
41593;BMP180;28026;48.562;14.440;2023-02-11T10:17:06;95115.00;;;8.20
41593;BMP180;28026;48.562;14.440;2023-02-11T10:23:29;95109.00;;;8.40
41593;BMP180;28026;48.562;14.440;2023-02-11T10:26:13;95102.00;;;8.40
41593;BMP180;28026;48.562;14.440;2023-02-11T10:28:52;95093.00;;;8.40
41593;BMP180;28026;48.562;14.440;2023-02-11T10:31:36;95096.00;;;8.40
41593;BMP180;28026;48.562;14.440;2023-02-11T10:34:13;95104.00;;;8.50
41593;BMP180;28026;48.562;14.440;2023-02-11T10:36:45;95107.00;;;8.60
41593;BMP180;28026;48.562;14.440;2023-02-11T10:39:25;95106.00;;;8.60
41593;BMP180;28026;48.562;14.440;2023-02-11T10:42:04;95100.00;;;8.60
41593;BMP180;28026;48.562;14.440;2023-02-11T10:45:37;95096.00;;;8.60
41593;BMP180;28026;48.562;14.440;2023-02-11T10:47:53;95108.00;;;8.70
41593;BMP180;28026;48.562;14.440;2023-02-11T10:50:28;95109.00;;;8.80
41593;BMP180;28026;48.562;14.440;2023-02-11T10:53:17;95097.00;;;9.00
41593;BMP180;28026;48.562;14.440;2023-02-11T10:55:54;95109.00;;;9.00
41593;BMP180;28026;48.562;14.440;2023-02-11T10:58:58;95097.00;;;9.00
41593;BMP180;28026;48.562;14.440;2023-02-11T11:01:57;95086.00;;;8.90
41593;BMP180;28026;48.562;14.440;2023-02-11T11:04:43;95087.00;;;8.80
41593;BMP180;28026;48.562;14.440;2023-02-11T11:07:27;95097.00;;;8.80
41593;BMP180;28026;48.562;14.440;2023-02-11T11:13:30;95077.00;;;8.80
41593;BMP180;28026;48.562;14.440;2023-02-11T11:18:46;95092.00;;;8.70
41593;BMP180;28026;48.562;14.440;2023-02-11T11:21:34;95092.00;;;8.70
41593;BMP180;28026;48.562;14.440;2023-02-11T11:24:45;95080.00;;;8.60
41593;BMP180;28026;48.562;14.440;2023-02-11T11:27:24;95076.00;;;8.50
41593;BMP180;28026;48.562;14.440;2023-02-11T11:29:55;95078.00;;;8.50
41593;BMP180;28026;48.562;14.440;2023-02-11T11:32:32;95077.00;;;8.50
41593;BMP180;28026;48.562;14.440;2023-02-11T11:35:22;95077.00;;;8.60
41593;BMP180;28026;48.562;14.440;2023-02-11T11:38:03;95066.00;;;8.50
41593;BMP180;28026;48.562;14.440;2023-02-11T11:40:35;95051.00;;;8.50
41593;BMP180;28026;48.562;14.440;2023-02-11T11:45:56;95044.00;;;8.40
41593;BMP180;28026;48.562;14.440;2023-02-11T11:48:42;95035.00;;;8.30
41593;BMP180;28026;48.562;14.440;2023-02-11T11:51:17;95041.00;;;8.30
41593;BMP180;28026;48.562;14.440;2023-02-11T11:54:17;95040.00;;;8.20
41593;BMP180;28026;48.562;14.440;2023-02-11T11:57:13;95041.00;;;8.20
41593;BMP180;28026;48.562;14.440;2023-02-11T11:59:48;95034.00;;;8.20
41593;BMP180;28026;48.562;14.440;2023-02-11T12:12:11;95018.00;;;8.20
41593;BMP180;28026;48.562;14.440;2023-02-11T12:15:24;95016.00;;;8.20
41593;BMP180;28026;48.562;14.440;2023-02-11T12:18:26;95010.00;;;8.20
41593;BMP180;28026;48.562;14.440;2023-02-11T12:28:06;94988.00;;;8.20
41593;BMP180;28026;48.562;14.440;2023-02-11T12:30:50;94977.00;;;8.20
41593;BMP180;28026;48.562;14.440;2023-02-11T12:34:03;94981.00;;;8.20
41593;BMP180;28026;48.562;14.440;2023-02-11T12:40:44;94993.00;;;8.20
41593;BMP180;28026;48.562;14.440;2023-02-11T12:43:36;94990.00;;;8.20
41593;BMP180;28026;48.562;14.440;2023-02-11T12:52:54;94999.00;;;8.40
41593;BMP180;28026;48.562;14.440;2023-02-11T12:55:46;94985.00;;;8.40
41593;BMP180;28026;48.562;14.440;2023-02-11T12:58:26;94999.00;;;8.40
41593;BMP180;28026;48.562;14.440;2023-02-11T13:01:23;95010.00;;;8.50
41593;BMP180;28026;48.562;14.440;2023-02-11T13:04:22;95018.00;;;8.50
41593;BMP180;28026;48.562;14.440;2023-02-11T13:07:03;95008.00;;;8.70
41593;BMP180;28026;48.562;14.440;2023-02-11T13:09:58;95010.00;;;8.80
41593;BMP180;28026;48.562;14.440;2023-02-11T13:12:37;95011.00;;;8.90
41593;BMP180;28026;48.562;14.440;2023-02-11T13:15:32;94991.00;;;9.00
41593;BMP180;28026;48.562;14.440;2023-02-11T13:18:29;94993.00;;;9.10
41593;BMP180;28026;48.562;14.440;2023-02-11T13:21:30;95014.00;;;9.10
41593;BMP180;28026;48.562;14.440;2023-02-11T13:27:31;95002.00;;;9.20
41593;BMP180;28026;48.562;14.440;2023-02-11T13:30:29;95002.00;;;9.20
41593;BMP180;28026;48.562;14.440;2023-02-11T13:38:30;95006.00;;;9.40
41593;BMP180;28026;48.562;14.440;2023-02-11T13:41:37;95007.00;;;9.40
41593;BMP180;28026;48.562;14.440;2023-02-11T13:47:00;95013.00;;;9.50
41593;BMP180;28026;48.562;14.440;2023-02-11T13:49:48;95009.00;;;9.60
41593;BMP180;28026;48.562;14.440;2023-02-11T13:52:33;95008.00;;;9.80
41593;BMP180;28026;48.562;14.440;2023-02-11T13:55:21;95017.00;;;10.00
41593;BMP180;28026;48.562;14.440;2023-02-11T14:06:10;95016.00;;;10.60
41593;BMP180;28026;48.562;14.440;2023-02-11T14:12:23;95020.00;;;10.60
41593;BMP180;28026;48.562;14.440;2023-02-11T14:17:35;95013.00;;;10.60
41593;BMP180;28026;48.562;14.440;2023-02-11T14:20:35;95004.00;;;10.60
41593;BMP180;28026;48.562;14.440;2023-02-11T14:23:22;95009.00;;;10.60
41593;BMP180;28026;48.562;14.440;2023-02-11T14:39:20;95012.00;;;10.50
41593;BMP180;28026;48.562;14.440;2023-02-11T14:42:02;94995.00;;;10.50
41593;BMP180;28026;48.562;14.440;2023-02-11T14:44:34;95009.00;;;10.50
41593;BMP180;28026;48.562;14.440;2023-02-11T14:47:05;95015.00;;;10.40
41593;BMP180;28026;48.562;14.440;2023-02-11T14:49:39;95014.00;;;10.30
41593;BMP180;28026;48.562;14.440;2023-02-11T14:52:33;95028.00;;;10.30
41593;BMP180;28026;48.562;14.440;2023-02-11T14:57:39;95006.00;;;10.00
41593;BMP180;28026;48.562;14.440;2023-02-11T15:00:22;95006.00;;;10.00
41593;BMP180;28026;48.562;14.440;2023-02-11T15:02:53;94999.00;;;9.90
41593;BMP180;28026;48.562;14.440;2023-02-11T15:05:27;94998.00;;;9.90
41593;BMP180;28026;48.562;14.440;2023-02-11T15:08:03;94993.00;;;9.90
41593;BMP180;28026;48.562;14.440;2023-02-11T15:10:43;94990.00;;;9.70
41593;BMP180;28026;48.562;14.440;2023-02-11T15:13:25;95006.00;;;9.70
41593;BMP180;28026;48.562;14.440;2023-02-11T15:16:06;95009.00;;;9.60
41593;BMP180;28026;48.562;14.440;2023-02-11T15:18:45;95005.00;;;9.60
41593;BMP180;28026;48.562;14.440;2023-02-11T15:21:29;95009.00;;;9.50
41593;BMP180;28026;48.562;14.440;2023-02-11T15:24:30;95016.00;;;9.50
41593;BMP180;28026;48.562;14.440;2023-02-11T15:29:46;95033.00;;;9.30
41593;BMP180;28026;48.562;14.440;2023-02-11T15:32:23;95033.00;;;9.20
41593;BMP180;28026;48.562;14.440;2023-02-11T15:34:55;95035.00;;;9.10
41593;BMP180;28026;48.562;14.440;2023-02-11T15:37:28;95034.00;;;8.90
41593;BMP180;28026;48.562;14.440;2023-02-11T15:40:16;95042.00;;;8.80
41593;BMP180;28026;48.562;14.440;2023-02-11T15:42:59;95039.00;;;8.70
41593;BMP180;28026;48.562;14.440;2023-02-11T15:51:32;95037.00;;;8.70
41593;BMP180;28026;48.562;14.440;2023-02-11T15:54:18;95028.00;;;8.70
41593;BMP180;28026;48.562;14.440;2023-02-11T15:57:07;95026.00;;;8.70
41593;BMP180;28026;48.562;14.440;2023-02-11T15:59:47;95029.00;;;8.60
41593;BMP180;28026;48.562;14.440;2023-02-11T16:02:33;95022.00;;;8.60
41593;BMP180;28026;48.562;14.440;2023-02-11T16:05:24;95023.00;;;8.60
41593;BMP180;28026;48.562;14.440;2023-02-11T16:08:11;95020.00;;;8.60
41593;BMP180;28026;48.562;14.440;2023-02-11T16:11:04;95025.00;;;8.60
41593;BMP180;28026;48.562;14.440;2023-02-11T16:13:46;95025.00;;;8.60
41593;BMP180;28026;48.562;14.440;2023-02-11T16:16:28;95021.00;;;8.60
41593;BMP180;28026;48.562;14.440;2023-02-11T16:19:03;95026.00;;;8.60
41593;BMP180;28026;48.562;14.440;2023-02-11T16:21:41;95026.00;;;8.60
41593;BMP180;28026;48.562;14.440;2023-02-11T16:24:31;95035.00;;;8.60
41593;BMP180;28026;48.562;14.440;2023-02-11T16:27:32;95045.00;;;8.60
41593;BMP180;28026;48.562;14.440;2023-02-11T16:30:32;95039.00;;;8.60
41593;BMP180;28026;48.562;14.440;2023-02-11T16:33:10;95033.00;;;8.40
41593;BMP180;28026;48.562;14.440;2023-02-11T16:35:41;95036.00;;;8.40
41593;BMP180;28026;48.562;14.440;2023-02-11T16:38:16;95030.00;;;8.40
41593;BMP180;28026;48.562;14.440;2023-02-11T16:40:47;95041.00;;;8.40
41593;BMP180;28026;48.562;14.440;2023-02-11T16:43:19;95043.00;;;8.40
41593;BMP180;28026;48.562;14.440;2023-02-11T16:45:50;95053.00;;;8.40
41593;BMP180;28026;48.562;14.440;2023-02-11T16:48:21;95056.00;;;8.50
41593;BMP180;28026;48.562;14.440;2023-02-11T16:50:52;95050.00;;;8.50
41593;BMP180;28026;48.562;14.440;2023-02-11T16:53:24;95046.00;;;8.50
41593;BMP180;28026;48.562;14.440;2023-02-11T16:55:55;95041.00;;;8.50
41593;BMP180;28026;48.562;14.440;2023-02-11T16:58:25;95044.00;;;8.50
41593;BMP180;28026;48.562;14.440;2023-02-11T17:00:56;95046.00;;;8.40
41593;BMP180;28026;48.562;14.440;2023-02-11T17:03:27;95054.00;;;8.40
41593;BMP180;28026;48.562;14.440;2023-02-11T17:05:58;95053.00;;;8.40
41593;BMP180;28026;48.562;14.440;2023-02-11T17:08:34;95057.00;;;8.40
41593;BMP180;28026;48.562;14.440;2023-02-11T17:11:05;95059.00;;;8.40
41593;BMP180;28026;48.562;14.440;2023-02-11T17:13:36;95065.00;;;8.40
41593;BMP180;28026;48.562;14.440;2023-02-11T17:16:21;95066.00;;;8.40
41593;BMP180;28026;48.562;14.440;2023-02-11T17:18:54;95066.00;;;8.30
41593;BMP180;28026;48.562;14.440;2023-02-11T17:21:25;95066.00;;;8.30